createdAt,value
2023-02-27T00:02:17.505Z,16.33
2023-02-27T00:04:46.143Z,16.39
2023-02-27T00:07:14.015Z,16.37
2023-02-27T00:09:42.118Z,15.96
2023-02-27T00:12:10.332Z,15.72
2023-02-27T00:14:40.420Z,15.54
2023-02-27T00:17:08.100Z,15.41
2023-02-27T00:19:35.628Z,15.33
2023-02-27T00:22:03.116Z,15.15
2023-02-27T00:24:31.084Z,15.02
2023-02-27T00:26:58.818Z,14.92
2023-02-27T00:29:26.267Z,14.85
2023-02-27T00:31:53.912Z,14.85
2023-02-27T00:34:21.497Z,15.02
2023-02-27T00:36:49.089Z,15.90
2023-02-27T00:39:16.558Z,16.30
2023-02-27T00:41:44.098Z,16.25
2023-02-27T00:44:11.519Z,16.52
2023-02-27T00:46:39.029Z,16.67
2023-02-27T00:49:06.786Z,16.82
2023-02-27T00:51:34.313Z,16.83
2023-02-27T00:54:04.108Z,16.60
2023-02-27T00:56:31.636Z,16.38
2023-02-27T00:58:59.169Z,16.42
2023-02-27T01:01:26.937Z,16.24
2023-02-27T01:03:56.896Z,15.96
2023-02-27T01:06:24.472Z,15.71
2023-02-27T01:08:51.963Z,15.76
2023-02-27T01:11:19.807Z,15.72
2023-02-27T01:13:47.379Z,15.89
2023-02-27T01:16:15.457Z,16.32
2023-02-27T01:18:43.049Z,16.06
2023-02-27T01:21:10.612Z,15.87
2023-02-27T01:23:38.104Z,15.92
2023-02-27T01:26:05.749Z,16.63
2023-02-27T01:28:34.911Z,16.80
2023-02-27T01:31:02.551Z,16.14
2023-02-27T01:33:32.481Z,15.68
2023-02-27T01:36:01.431Z,15.43
2023-02-27T01:38:28.955Z,16.74
2023-02-27T01:40:57.376Z,17.01
2023-02-27T01:43:25.031Z,17.03
2023-02-27T01:45:53.709Z,16.87
2023-02-27T01:48:37.707Z,16.66
2023-02-27T01:51:16.176Z,16.64
2023-02-27T01:53:46.792Z,16.84
2023-02-27T01:56:20.839Z,16.61
2023-02-27T01:58:51.446Z,16.01
2023-02-27T02:01:21.191Z,15.97
2023-02-27T02:04:30.587Z,15.49
2023-02-27T02:07:07.640Z,14.84
2023-02-27T02:09:48.976Z,14.54
2023-02-27T02:12:19.800Z,14.78
2023-02-27T02:14:47.351Z,14.52
2023-02-27T02:17:26.807Z,14.32
2023-02-27T02:20:08.922Z,14.28
2023-02-27T02:23:16.186Z,14.33
2023-02-27T02:26:25.083Z,14.28
2023-02-27T02:29:19.544Z,14.22
2023-02-27T02:32:32.993Z,14.15
2023-02-27T02:35:36.634Z,14.15
2023-02-27T02:38:25.046Z,14.19
2023-02-27T02:41:13.515Z,14.23
2023-02-27T02:43:57.380Z,14.21
2023-02-27T02:46:58.196Z,14.19
2023-02-27T02:49:57.993Z,13.88
2023-02-27T02:52:44.857Z,13.75
2023-02-27T02:55:33.654Z,13.75
2023-02-27T02:58:15.496Z,13.72
2023-02-27T03:00:59.359Z,13.77
2023-02-27T03:03:46.043Z,13.71
2023-02-27T03:06:25.336Z,13.76
2023-02-27T03:09:00.117Z,13.66
2023-02-27T03:11:33.337Z,13.63
2023-02-27T03:14:25.613Z,13.82
2023-02-27T03:17:01.866Z,13.92
2023-02-27T03:19:41.757Z,14.13
2023-02-27T03:22:15.742Z,14.11
2023-02-27T03:25:06.929Z,14.01
2023-02-27T03:27:46.050Z,13.98
2023-02-27T03:30:37.269Z,13.91
2023-02-27T03:33:30.585Z,13.92
2023-02-27T03:36:15.673Z,13.93
2023-02-27T03:38:54.762Z,13.99
2023-02-27T03:42:04.490Z,14.05
2023-02-27T03:45:39.379Z,13.99
2023-02-27T03:48:09.076Z,13.89
2023-02-27T03:50:38.433Z,13.90
2023-02-27T03:53:37.933Z,13.86
2023-02-27T03:56:08.926Z,13.86
2023-02-27T03:58:36.974Z,14.11
2023-02-27T04:01:04.796Z,13.72
2023-02-27T04:03:49.843Z,13.70
2023-02-27T04:06:50.813Z,13.70
2023-02-27T04:09:57.901Z,13.77
2023-02-27T04:13:02.044Z,13.79
2023-02-27T04:16:00.713Z,13.81
2023-02-27T04:18:56.938Z,13.73
2023-02-27T04:21:34.319Z,13.73
2023-02-27T04:24:35.498Z,13.88
2023-02-27T04:27:19.367Z,14.09
2023-02-27T04:30:29.181Z,14.01
2023-02-27T04:33:13.286Z,13.91
2023-02-27T04:35:53.259Z,14.04
2023-02-27T04:39:03.905Z,14.14
2023-02-27T04:42:06.943Z,13.91
2023-02-27T04:44:37.021Z,13.74
2023-02-27T04:47:10.850Z,13.71
2023-02-27T04:49:47.106Z,13.80
2023-02-27T04:52:30.176Z,14.73
2023-02-27T04:55:15.296Z,14.86
2023-02-27T04:57:52.101Z,14.41
2023-02-27T05:00:23.627Z,14.26
2023-02-27T05:02:59.920Z,14.17
2023-02-27T05:05:32.886Z,13.91
2023-02-27T05:08:55.403Z,13.84
2023-02-27T05:11:38.710Z,13.81
2023-02-27T05:17:39.295Z,13.44
2023-02-27T05:20:07.684Z,13.54
2023-02-27T05:22:59.850Z,13.40
2023-02-27T05:25:58.912Z,13.29
2023-02-27T05:28:56.012Z,13.37
2023-02-27T05:48:40.233Z,12.49
2023-02-27T05:51:11.823Z,12.47
2023-02-27T05:53:51.246Z,12.21
2023-02-27T05:56:22.264Z,12.23
2023-02-27T05:59:01.323Z,12.46
2023-02-27T06:01:28.812Z,12.54
2023-02-27T06:03:57.762Z,12.62
2023-02-27T06:06:26.116Z,12.72
2023-02-27T06:08:53.719Z,12.99
2023-02-27T06:11:21.182Z,12.98
2023-02-27T06:13:48.633Z,13.10
2023-02-27T06:16:17.200Z,13.31
2023-02-27T06:18:44.755Z,13.24
2023-02-27T06:21:14.275Z,13.32
2023-02-27T06:23:41.872Z,13.38
2023-02-27T06:26:14.144Z,13.46
2023-02-27T06:28:42.611Z,13.58
2023-02-27T06:31:10.044Z,13.68
2023-02-27T06:33:40.856Z,13.83
2023-02-27T06:36:08.442Z,13.96
2023-02-27T06:38:36.902Z,14.14
2023-02-27T06:41:04.511Z,14.15
2023-02-27T06:43:34.749Z,14.03
2023-02-27T06:46:02.659Z,14.22
2023-02-27T06:48:30.153Z,14.43
2023-02-27T06:50:58.109Z,14.42
2023-02-27T06:53:26.121Z,14.56
2023-02-27T06:55:53.587Z,14.60
2023-02-27T06:58:21.114Z,14.52
2023-02-27T07:00:48.622Z,14.56
2023-02-27T07:03:16.212Z,14.74
2023-02-27T07:05:44.763Z,14.83
2023-02-27T07:08:12.295Z,15.02
2023-02-27T07:10:40.311Z,15.22
2023-02-27T07:13:07.694Z,15.38
2023-02-27T07:15:35.730Z,15.46
2023-02-27T07:18:03.427Z,15.47
2023-02-27T07:20:30.932Z,15.68
2023-02-27T07:22:58.499Z,15.96
2023-02-27T07:25:26.007Z,16.20
2023-02-27T07:27:53.473Z,17.09
2023-02-27T07:30:21.045Z,17.26
2023-02-27T07:32:50.777Z,17.19
2023-02-27T07:35:19.500Z,16.71
2023-02-27T07:37:48.235Z,16.59
2023-02-27T07:40:16.650Z,16.90
2023-02-27T07:42:44.205Z,17.39
2023-02-27T07:45:13.191Z,17.44
2023-02-27T07:47:40.708Z,16.97
2023-02-27T07:50:09.299Z,16.78
2023-02-27T07:52:36.705Z,17.16
2023-02-27T07:55:04.229Z,17.16
2023-02-27T07:57:53.910Z,16.86
2023-02-27T08:00:22.296Z,16.63
2023-02-27T08:02:50.349Z,16.30
2023-02-27T08:05:18.433Z,16.08
2023-02-27T08:07:46.012Z,16.55
2023-02-27T08:10:16.205Z,16.75
2023-02-27T08:12:44.840Z,17.18
2023-02-27T08:15:12.797Z,16.98
2023-02-27T08:17:40.280Z,17.17
2023-02-27T08:20:11.334Z,16.95
2023-02-27T08:22:38.958Z,17.04
2023-02-27T08:25:10.793Z,16.92
2023-02-27T08:27:39.344Z,17.00
2023-02-27T08:30:09.360Z,17.06
2023-02-27T08:32:38.660Z,17.08
2023-02-27T08:35:07.475Z,17.22
2023-02-27T08:37:35.020Z,17.42
2023-02-27T08:40:02.517Z,18.28
2023-02-27T08:42:30.359Z,17.76
2023-02-27T08:44:58.273Z,17.99
2023-02-27T08:47:26.548Z,18.21
2023-02-27T08:49:56.653Z,18.29
2023-02-27T08:52:25.085Z,18.66
2023-02-27T08:54:52.612Z,18.41
2023-02-27T08:57:20.457Z,18.38
2023-02-27T08:59:48.310Z,18.21
2023-02-27T09:02:16.056Z,18.25
2023-02-27T09:04:43.516Z,18.31
2023-02-27T09:07:12.238Z,18.46
2023-02-27T09:09:39.814Z,18.57
2023-02-27T09:12:08.138Z,18.89
2023-02-27T09:14:37.356Z,18.78
2023-02-27T09:17:06.060Z,18.85
2023-02-27T09:19:36.325Z,19.03
2023-02-27T09:22:05.952Z,19.28
2023-02-27T09:24:33.475Z,19.39
2023-02-27T09:27:01.939Z,19.32
2023-02-27T09:29:32.124Z,19.35
2023-02-27T09:32:04.743Z,19.40
2023-02-27T09:34:35.643Z,19.63
2023-02-27T09:37:03.207Z,20.08
2023-02-27T09:39:30.933Z,19.90
2023-02-27T09:42:24.304Z,19.65
2023-02-27T09:44:57.605Z,19.54
2023-02-27T09:47:50.841Z,19.73
2023-02-27T09:50:41.056Z,19.59
2023-02-27T09:53:37.765Z,19.73
2023-02-27T09:56:29.964Z,20.09
2023-02-27T09:59:09.221Z,20.36
2023-02-27T10:02:27.018Z,20.34
2023-02-27T10:05:30.699Z,20.40
2023-02-27T10:08:30.348Z,20.48
2023-02-27T10:11:12.198Z,20.43
2023-02-27T10:14:33.986Z,20.58
2023-02-27T10:17:12.119Z,20.90
2023-02-27T10:19:41.034Z,20.85
2023-02-27T10:22:30.947Z,20.80
2023-02-27T10:25:29.740Z,21.04
2023-02-27T10:28:16.635Z,21.35
2023-02-27T10:31:24.204Z,21.46
2023-02-27T10:33:53.627Z,21.74
2023-02-27T10:36:33.620Z,22.20
2023-02-27T10:39:12.523Z,22.36
2023-02-27T10:41:41.654Z,22.40
2023-02-27T10:44:14.628Z,22.58
2023-02-27T10:46:43.168Z,23.19
2023-02-27T10:49:22.171Z,23.22
2023-02-27T10:52:13.509Z,23.65
2023-02-27T10:54:43.077Z,23.13
2023-02-27T10:57:30.415Z,22.95
2023-02-27T11:00:28.257Z,22.96
2023-02-27T11:02:55.950Z,23.26
2023-02-27T11:05:32.215Z,23.40
2023-02-27T11:08:31.409Z,23.57
2023-02-27T11:11:07.150Z,24.07
2023-02-27T11:13:45.521Z,24.16
2023-02-27T11:16:21.854Z,24.20
2023-02-27T11:18:52.378Z,24.47
2023-02-27T11:21:24.801Z,24.66
2023-02-27T11:24:17.989Z,25.00
2023-02-27T11:27:03.729Z,25.32
2023-02-27T11:29:35.421Z,25.30
2023-02-27T11:32:15.052Z,25.40
2023-02-27T11:34:50.778Z,25.77
2023-02-27T11:37:35.469Z,25.99
2023-02-27T11:40:14.747Z,26.09
2023-02-27T11:42:50.421Z,26.36
2023-02-27T11:46:13.989Z,25.97
2023-02-27T11:48:28.421Z,26.03
2023-02-27T11:51:26.731Z,26.26
2023-02-27T11:54:01.036Z,26.23
2023-02-27T11:56:41.904Z,26.51
2023-02-27T11:59:15.003Z,26.61
2023-02-27T12:02:03.780Z,26.56
2023-02-27T12:04:55.842Z,26.65
2023-02-27T12:08:19.958Z,26.44
2023-02-27T12:11:14.229Z,26.50
2023-02-27T12:13:58.092Z,26.74
2023-02-27T12:16:37.148Z,27.03
2023-02-27T12:19:22.763Z,27.23
2023-02-27T12:22:06.822Z,27.21
2023-02-27T12:24:47.258Z,26.90
2023-02-27T12:27:34.075Z,26.54
2023-02-27T12:30:28.688Z,25.93
2023-02-27T12:33:18.403Z,25.46
2023-02-27T12:35:56.203Z,25.22
2023-02-27T12:38:24.807Z,25.36
2023-02-27T12:40:54.709Z,25.21
2023-02-27T12:44:06.708Z,24.90
2023-02-27T12:46:55.735Z,24.90
2023-02-27T12:49:52.940Z,24.51
2023-02-27T12:53:01.722Z,24.39
2023-02-27T12:55:54.199Z,24.57
2023-02-27T12:58:58.487Z,25.18
2023-02-27T13:01:37.538Z,25.96
2023-02-27T13:04:45.092Z,26.63
2023-02-27T13:07:37.499Z,27.03
2023-02-27T13:10:34.979Z,26.90
2023-02-27T13:13:46.803Z,26.67
2023-02-27T13:16:37.208Z,26.52
2023-02-27T13:19:24.470Z,26.31
2023-02-27T13:22:29.326Z,26.08
2023-02-27T13:25:01.504Z,26.05
2023-02-27T13:27:36.438Z,25.86
2023-02-27T13:30:03.848Z,25.55
2023-02-27T13:33:03.197Z,25.56
2023-02-27T13:36:13.964Z,25.78
2023-02-27T13:38:48.973Z,26.28
2023-02-27T13:41:25.646Z,26.69
2023-02-27T13:43:57.922Z,27.11
2023-02-27T13:46:33.785Z,27.66
2023-02-27T13:49:20.015Z,27.95
2023-02-27T13:51:56.826Z,28.37
2023-02-27T13:54:40.761Z,28.47
2023-02-27T13:57:19.701Z,28.14
2023-02-27T14:00:21.257Z,27.91
2023-02-27T14:03:25.893Z,27.75
2023-02-27T14:05:57.653Z,27.41
2023-02-27T14:08:28.386Z,26.98
2023-02-27T14:11:13.459Z,26.75
2023-02-27T14:13:49.978Z,25.97
2023-02-27T14:16:41.729Z,25.58
2023-02-27T14:19:22.730Z,25.19
2023-02-27T14:22:12.216Z,24.78
2023-02-27T14:25:01.047Z,24.42
2023-02-27T14:27:57.154Z,24.16
2023-02-27T14:31:01.560Z,24.02
2023-02-27T14:33:42.412Z,23.84
2023-02-27T14:36:27.701Z,23.61
2023-02-27T14:38:58.025Z,23.58
2023-02-27T14:41:48.681Z,23.63
2023-02-27T14:44:25.632Z,23.64
2023-02-27T14:46:56.349Z,23.40
2023-02-27T14:49:33.957Z,23.33
2023-02-27T14:52:25.433Z,23.29
2023-02-27T14:54:53.799Z,22.99
2023-02-27T14:57:29.318Z,22.68
2023-02-27T14:59:56.902Z,22.40
2023-02-27T15:05:03.701Z,22.09
2023-02-27T15:07:35.165Z,22.12
2023-02-27T15:10:10.133Z,22.12
2023-02-27T15:12:39.850Z,22.12
2023-02-27T15:15:10.137Z,22.00
2023-02-27T15:17:44.043Z,21.89
2023-02-27T15:20:36.326Z,21.92
2023-02-27T15:23:28.331Z,21.88
2023-02-27T15:25:59.318Z,21.72
2023-02-27T15:28:38.456Z,21.77
2023-02-27T15:31:08.521Z,21.78
2023-02-27T15:33:36.271Z,21.69
2023-02-27T15:36:04.161Z,21.38
2023-02-27T15:38:35.905Z,21.25
2023-02-27T15:41:05.232Z,20.94
2023-02-27T15:43:33.100Z,20.75
2023-02-27T15:46:00.972Z,20.66
2023-02-27T15:48:48.799Z,20.47
2023-02-27T15:51:16.633Z,20.61
2023-02-27T15:53:50.490Z,21.48
2023-02-27T15:56:25.685Z,21.88
2023-02-27T15:59:00.238Z,21.45
2023-02-27T16:01:38.969Z,21.30
2023-02-27T16:04:20.921Z,20.81
2023-02-27T16:07:25.627Z,20.80
2023-02-27T16:10:08.782Z,20.32
2023-02-27T16:12:39.089Z,20.32
2023-02-27T16:15:31.571Z,20.39
2023-02-27T16:18:23.597Z,20.12
2023-02-27T16:20:57.346Z,19.73
2023-02-27T16:23:34.248Z,19.44
2023-02-27T16:26:27.575Z,19.08
2023-02-27T16:29:04.807Z,18.99
2023-02-27T16:31:47.812Z,19.08
2023-02-27T16:34:44.629Z,19.08
2023-02-27T16:37:40.509Z,18.95
2023-02-27T16:40:17.011Z,18.95
2023-02-27T16:42:50.944Z,19.03
2023-02-27T16:45:25.683Z,18.92
2023-02-27T16:47:58.549Z,19.01
2023-02-27T16:50:36.279Z,18.56
2023-02-27T16:53:04.811Z,18.35
2023-02-27T16:55:33.941Z,18.38
2023-02-27T16:58:01.731Z,18.27
2023-02-27T17:00:36.553Z,18.14
2023-02-27T17:03:04.736Z,18.06
2023-02-27T17:05:34.921Z,17.90
2023-02-27T17:08:05.854Z,17.80
2023-02-27T17:10:35.116Z,17.83
2023-02-27T17:13:05.570Z,18.04
2023-02-27T17:15:33.815Z,18.36
2023-02-27T17:18:01.545Z,18.30
2023-02-27T17:20:31.701Z,18.80
2023-02-27T17:22:59.230Z,18.23
2023-02-27T17:25:32.178Z,18.08
2023-02-27T17:28:02.793Z,17.90
2023-02-27T17:30:32.886Z,17.82
2023-02-27T17:33:02.076Z,17.71
2023-02-27T17:35:33.158Z,17.81
2023-02-27T17:38:01.919Z,17.74
2023-02-27T17:40:30.210Z,17.66
2023-02-27T17:42:59.276Z,17.59
2023-02-27T17:45:29.160Z,17.64
2023-02-27T17:47:57.642Z,17.57
2023-02-27T17:50:27.432Z,17.57
2023-02-27T17:52:58.816Z,17.54
2023-02-27T17:55:26.593Z,17.41
2023-02-27T17:57:55.811Z,17.28
2023-02-27T18:00:26.603Z,17.87
2023-02-27T18:02:54.467Z,18.31
2023-02-27T18:05:22.136Z,18.31
2023-02-27T18:07:50.040Z,17.91
2023-02-27T18:10:23.800Z,18.05
2023-02-27T18:12:55.026Z,17.68
2023-02-27T18:15:25.142Z,17.28
2023-02-27T18:17:52.646Z,17.08
2023-02-27T18:20:22.061Z,17.07
2023-02-27T18:22:49.581Z,17.00
2023-02-27T18:25:17.641Z,16.98
2023-02-27T18:27:45.131Z,16.89
2023-02-27T18:30:14.048Z,16.83
2023-02-27T18:32:42.591Z,16.84
2023-02-27T18:35:16.102Z,16.86
2023-02-27T18:37:44.878Z,16.84
2023-02-27T18:40:34.554Z,16.74
2023-02-27T18:43:03.750Z,16.70
2023-02-27T18:45:51.848Z,16.75
2023-02-27T18:48:22.467Z,16.95
2023-02-27T18:50:53.300Z,16.81
2023-02-27T18:53:23.111Z,16.84
2023-02-27T18:55:52.070Z,16.82
2023-02-27T18:58:21.656Z,16.84
2023-02-27T19:01:17.625Z,16.86
2023-02-27T19:03:45.480Z,16.79
2023-02-27T19:06:17.782Z,16.68
2023-02-27T19:08:46.777Z,16.52
2023-02-27T19:11:34.811Z,16.51
2023-02-27T19:14:09.821Z,16.39
2023-02-27T19:16:37.854Z,16.28
2023-02-27T19:19:12.319Z,16.19
2023-02-27T19:21:42.851Z,16.12
2023-02-27T19:24:14.792Z,16.03
2023-02-27T19:26:42.384Z,15.97
2023-02-27T19:29:10.177Z,15.97
2023-02-27T19:31:37.991Z,15.90
2023-02-27T19:34:06.115Z,16.01
2023-02-27T19:36:34.975Z,15.93
2023-02-27T19:39:05.498Z,15.86
2023-02-27T19:41:34.630Z,15.74
2023-02-27T19:44:02.467Z,15.67
2023-02-27T19:46:34.310Z,15.69
2023-02-27T19:49:05.821Z,15.62
2023-02-27T19:51:35.213Z,15.69
2023-02-27T19:54:04.492Z,15.54
2023-02-27T19:56:40.756Z,15.45
2023-02-27T19:59:12.087Z,15.31
2023-02-27T20:01:40.846Z,15.28
2023-02-27T20:04:13.858Z,15.26
2023-02-27T20:06:44.464Z,15.22
2023-02-27T20:09:18.390Z,15.15
2023-02-27T20:11:48.727Z,15.18
2023-02-27T20:14:18.686Z,15.12
2023-02-27T20:16:48.268Z,14.95
2023-02-27T20:19:20.633Z,14.82
2023-02-27T20:21:54.566Z,14.78
2023-02-27T20:24:22.499Z,14.80
2023-02-27T20:26:55.050Z,14.84
2023-02-27T20:29:26.301Z,14.91
2023-02-27T20:31:58.329Z,14.77
2023-02-27T20:34:27.286Z,14.67
2023-02-27T20:36:57.695Z,14.66
2023-02-27T20:39:26.172Z,14.62
2023-02-27T20:41:53.742Z,14.60
2023-02-27T20:44:21.268Z,14.47
2023-02-27T20:46:50.290Z,14.38
2023-02-27T20:49:18.441Z,14.28
2023-02-27T20:51:49.570Z,14.48
2023-02-27T20:54:20.856Z,14.50
2023-02-27T20:57:06.273Z,14.11
2023-02-27T20:59:34.571Z,14.27
2023-02-27T21:02:05.196Z,13.81
2023-02-27T21:04:47.350Z,13.51
2023-02-27T21:07:22.895Z,13.52
2023-02-27T21:09:54.246Z,13.45
2023-02-27T21:12:25.273Z,13.62
2023-02-27T21:14:54.283Z,13.64
2023-02-27T21:17:25.430Z,13.91
2023-02-27T21:19:57.089Z,13.76
2023-02-27T21:22:45.501Z,13.73
2023-02-27T21:25:15.464Z,13.65
2023-02-27T21:27:43.425Z,13.74
2023-02-27T21:30:14.532Z,13.56
2023-02-27T21:32:42.629Z,13.42
2023-02-27T21:35:12.190Z,13.46
2023-02-27T21:37:49.357Z,13.53
2023-02-27T21:40:19.793Z,13.80
2023-02-27T21:42:50.425Z,13.77
2023-02-27T21:45:21.803Z,13.73
2023-02-27T21:47:51.382Z,13.71
2023-02-27T21:50:23.048Z,13.67
2023-02-27T21:52:54.715Z,13.71
2023-02-27T21:55:23.578Z,13.77
2023-02-27T21:57:53.705Z,13.63
2023-02-27T22:00:26.998Z,13.52
2023-02-27T22:02:56.113Z,13.34
2023-02-27T22:05:26.442Z,13.17
2023-02-27T22:07:59.580Z,13.06
2023-02-27T22:10:48.008Z,13.16
2023-02-27T22:13:17.098Z,12.97
2023-02-27T22:15:44.803Z,12.75
2023-02-27T22:18:18.648Z,12.65
2023-02-27T22:20:47.949Z,12.51
2023-02-27T22:23:19.219Z,12.45
2023-02-27T22:25:48.225Z,12.27
2023-02-27T22:28:15.894Z,12.27
2023-02-27T22:30:43.510Z,12.06
2023-02-27T22:33:10.932Z,12.66
2023-02-27T22:35:39.832Z,13.16
2023-02-27T22:38:08.213Z,12.76
2023-02-27T22:40:36.205Z,12.57
2023-02-27T22:43:03.948Z,12.53
2023-02-27T22:45:31.417Z,12.61
2023-02-27T22:47:59.270Z,12.17
2023-02-27T22:50:26.904Z,12.25
2023-02-27T22:52:54.376Z,12.04
2023-02-27T22:55:21.895Z,11.94
2023-02-27T22:57:51.844Z,11.96
2023-02-27T23:00:20.858Z,12.03
2023-02-27T23:02:48.412Z,12.09
2023-02-27T23:05:16.021Z,12.02
2023-02-27T23:07:43.773Z,11.93
2023-02-27T23:10:13.162Z,11.83
2023-02-27T23:12:40.703Z,11.86
2023-02-27T23:15:09.455Z,12.04
2023-02-27T23:17:43.568Z,12.16
2023-02-27T23:20:17.019Z,11.91
2023-02-27T23:22:44.542Z,12.03
2023-02-27T23:25:12.070Z,12.24
2023-02-27T23:27:39.532Z,12.13
2023-02-27T23:30:08.188Z,11.92
2023-02-27T23:32:43.545Z,11.62
2023-02-27T23:35:12.655Z,11.45
2023-02-27T23:37:40.482Z,11.43
2023-02-27T23:40:09.593Z,11.30
2023-02-27T23:42:55.664Z,11.29
2023-02-27T23:45:23.260Z,11.26
2023-02-27T23:47:56.535Z,11.21
2023-02-27T23:50:37.706Z,11.30
2023-02-27T23:53:06.693Z,11.71
2023-02-27T23:55:38.049Z,11.43
2023-02-27T23:58:09.488Z,11.21
